createdAt,value
2022-08-09T00:00:31.696Z,21.20
2022-08-09T00:03:01.886Z,21.20
2022-08-09T00:06:19.508Z,21.20
2022-08-09T00:08:38.270Z,21.10
2022-08-09T00:11:24.610Z,21.10
2022-08-09T00:13:53.574Z,21.00
2022-08-09T00:16:26.533Z,21.00
2022-08-09T00:19:09.563Z,21.00
2022-08-09T00:21:43.276Z,21.00
2022-08-09T00:24:27.296Z,21.00
2022-08-09T00:26:57.341Z,21.00
2022-08-09T00:30:16.134Z,20.90
2022-08-09T00:32:26.845Z,20.90
2022-08-09T00:34:56.924Z,20.80
2022-08-09T00:37:30.194Z,20.80
2022-08-09T00:40:12.532Z,20.80
2022-08-09T00:44:13.009Z,20.70
2022-08-09T00:45:35.128Z,20.70
2022-08-09T00:48:06.338Z,20.70
2022-08-09T00:50:37.628Z,20.70
2022-08-09T00:53:08.806Z,20.70
2022-08-09T00:56:04.027Z,20.70
2022-08-09T00:58:27.847Z,20.70
2022-08-09T01:00:59.646Z,20.70
2022-08-09T01:03:45.560Z,20.60
2022-08-09T01:06:25.580Z,20.60
2022-08-09T01:09:20.131Z,20.60
2022-08-09T01:12:02.094Z,20.60
2022-08-09T01:14:34.501Z,20.50
2022-08-09T01:17:10.932Z,20.50
2022-08-09T01:19:57.166Z,20.50
2022-08-09T01:22:54.754Z,20.40
2022-08-09T01:25:41.780Z,20.40
2022-08-09T01:28:12.638Z,20.40
2022-08-09T01:30:51.535Z,20.30
2022-08-09T01:33:24.922Z,20.30
2022-08-09T01:36:00.629Z,20.20
2022-08-09T01:38:31.749Z,20.20
2022-08-09T01:41:06.224Z,20.10
2022-08-09T01:43:50.251Z,20.00
2022-08-09T01:46:25.295Z,20.00
2022-08-09T01:48:59.897Z,19.90
2022-08-09T01:51:42.908Z,19.90
2022-08-09T01:54:14.978Z,19.90
2022-08-09T01:56:51.376Z,19.80
2022-08-09T01:59:23.547Z,19.70
2022-08-09T02:01:59.833Z,19.70
2022-08-09T02:04:31.703Z,19.70
2022-08-09T02:07:18.085Z,19.60
2022-08-09T02:10:04.153Z,19.60
2022-08-09T02:12:34.834Z,19.60
2022-08-09T02:15:08.441Z,19.60
2022-08-09T02:18:09.589Z,19.60
2022-08-09T02:20:34.177Z,19.60
2022-08-09T02:23:07.783Z,19.60
2022-08-09T02:25:41.964Z,19.60
2022-08-09T02:28:17.744Z,19.50
2022-08-09T02:30:50.631Z,19.50
2022-08-09T02:33:23.062Z,19.50
2022-08-09T02:36:10.539Z,19.40
2022-08-09T02:38:48.975Z,19.50
2022-08-09T02:41:24.389Z,19.50
2022-08-09T02:43:55.668Z,19.40
2022-08-09T02:46:28.814Z,19.40
2022-08-09T02:49:02.837Z,19.50
2022-08-09T02:51:40.452Z,19.40
2022-08-09T02:54:12.403Z,19.30
2022-08-09T02:56:51.124Z,19.30
2022-08-09T02:59:26.648Z,19.20
2022-08-09T03:02:11.884Z,19.20
2022-08-09T03:04:43.216Z,19.20
2022-08-09T03:07:14.647Z,19.20
2022-08-09T03:09:54.283Z,19.20
2022-08-09T03:12:26.976Z,19.20
2022-08-09T03:14:57.782Z,19.20
2022-08-09T03:17:29.658Z,19.10
2022-08-09T03:20:03.534Z,19.10
2022-08-09T03:22:42.138Z,19.10
2022-08-09T03:25:25.849Z,19.10
2022-08-09T03:28:03.933Z,19.00
2022-08-09T03:30:33.427Z,19.00
2022-08-09T03:33:17.326Z,18.90
2022-08-09T03:36:12.922Z,18.90
2022-08-09T03:38:37.143Z,18.90
2022-08-09T03:41:05.866Z,18.90
2022-08-09T03:43:34.225Z,18.80
2022-08-09T03:46:19.839Z,18.80
2022-08-09T03:48:54.858Z,18.80
2022-08-09T03:51:43.644Z,18.80
2022-08-09T03:54:13.030Z,18.80
2022-08-09T03:56:42.446Z,18.70
2022-08-09T03:59:17.181Z,18.70
2022-08-09T04:01:50.389Z,18.70
2022-08-09T04:04:21.504Z,18.60
2022-08-09T04:06:52.961Z,18.60
2022-08-09T04:09:42.092Z,18.60
2022-08-09T04:12:32.762Z,18.60
2022-08-09T04:15:11.377Z,18.50
2022-08-09T04:17:47.403Z,18.50
2022-08-09T04:20:18.001Z,18.50
2022-08-09T04:22:47.421Z,18.50
2022-08-09T04:25:18.686Z,18.40
2022-08-09T04:27:49.289Z,18.50
2022-08-09T04:30:20.675Z,18.50
2022-08-09T04:32:51.985Z,18.40
2022-08-09T04:35:22.081Z,18.40
2022-08-09T04:37:50.747Z,18.50
2022-08-09T04:40:36.284Z,18.50
2022-08-09T04:43:05.786Z,18.50
2022-08-09T04:45:36.060Z,18.50
2022-08-09T04:48:21.665Z,18.50
2022-08-09T04:50:53.720Z,18.50
2022-08-09T04:53:21.888Z,18.40
2022-08-09T04:55:58.772Z,18.40
2022-08-09T04:58:29.736Z,18.40
2022-08-09T05:01:01.271Z,18.40
2022-08-09T05:03:40.107Z,18.40
2022-08-09T05:06:25.759Z,18.40
2022-08-09T05:09:00.838Z,18.50
2022-08-09T05:11:35.353Z,18.50
2022-08-09T05:14:05.982Z,18.40
2022-08-09T05:16:58.172Z,18.50
2022-08-09T05:19:25.975Z,18.50
2022-08-09T05:21:56.185Z,18.50
2022-08-09T05:24:25.260Z,18.50
2022-08-09T05:26:54.427Z,18.50
2022-08-09T05:29:24.203Z,18.40
2022-08-09T05:32:01.044Z,18.40
2022-08-09T05:34:31.833Z,18.40
2022-08-09T05:37:06.170Z,18.40
2022-08-09T05:39:42.421Z,18.50
2022-08-09T05:42:17.677Z,18.50
2022-08-09T05:44:50.926Z,18.60
2022-08-09T05:47:19.533Z,18.50
2022-08-09T05:50:30.022Z,18.60
2022-08-09T05:52:40.282Z,18.60
2022-08-09T05:55:20.458Z,18.70
2022-08-09T05:57:55.897Z,18.70
2022-08-09T06:00:26.163Z,18.80
2022-08-09T06:02:56.858Z,18.90
2022-08-09T06:05:50.197Z,19.00
2022-08-09T06:08:19.855Z,19.00
2022-08-09T06:10:55.268Z,19.10
2022-08-09T06:13:23.849Z,19.10
2022-08-09T06:15:53.006Z,19.20
2022-08-09T06:18:23.854Z,19.20
2022-08-09T06:20:57.889Z,19.30
2022-08-09T06:23:55.007Z,19.40
2022-08-09T06:26:22.570Z,19.50
2022-08-09T06:29:00.352Z,19.60
2022-08-09T06:31:39.924Z,19.70
2022-08-09T06:34:23.257Z,19.80
2022-08-09T06:36:59.157Z,19.90
2022-08-09T06:39:48.358Z,20.00
2022-08-09T06:42:20.173Z,20.10
2022-08-09T06:44:54.230Z,20.20
2022-08-09T06:47:23.797Z,20.10
2022-08-09T06:50:14.026Z,20.20
2022-08-09T06:52:46.911Z,20.30
2022-08-09T06:55:18.261Z,20.40
2022-08-09T06:58:03.288Z,20.50
2022-08-09T07:00:49.068Z,20.70
2022-08-09T07:03:28.496Z,20.80
2022-08-09T07:06:04.142Z,20.90
2022-08-09T07:08:34.637Z,21.00
2022-08-09T07:11:06.399Z,21.10
2022-08-09T07:13:44.899Z,21.20
2022-08-09T07:16:42.609Z,21.30
2022-08-09T07:19:15.654Z,21.50
2022-08-09T07:21:55.296Z,21.60
2022-08-09T07:24:32.748Z,21.70
2022-08-09T07:27:26.904Z,21.80
2022-08-09T07:30:00.822Z,21.90
2022-08-09T07:32:33.582Z,22.00
2022-08-09T07:35:10.209Z,22.10
2022-08-09T07:37:44.664Z,22.30
2022-08-09T07:40:16.996Z,22.30
2022-08-09T07:42:55.871Z,22.40
2022-08-09T07:45:37.860Z,22.60
2022-08-09T07:48:28.498Z,22.70
2022-08-09T07:51:10.308Z,22.80
2022-08-09T07:54:06.390Z,22.80
2022-08-09T07:56:44.761Z,22.90
2022-08-09T07:59:25.526Z,23.00
2022-08-09T08:02:02.418Z,23.10
2022-08-09T08:04:32.938Z,23.20
2022-08-09T08:07:14.972Z,23.20
2022-08-09T08:10:04.714Z,23.30
2022-08-09T08:12:43.634Z,23.40
2022-08-09T08:15:16.785Z,23.60
2022-08-09T08:17:53.410Z,23.60
2022-08-09T08:20:29.195Z,23.70
2022-08-09T08:23:15.733Z,23.80
2022-08-09T08:25:49.986Z,23.80
2022-08-09T08:28:25.960Z,23.90
2022-08-09T08:31:13.915Z,24.00
2022-08-09T08:33:52.112Z,24.00
2022-08-09T08:36:29.193Z,24.10
2022-08-09T08:38:59.676Z,24.20
2022-08-09T08:41:41.998Z,24.40
2022-08-09T08:44:26.997Z,24.40
2022-08-09T08:47:04.401Z,24.50
2022-08-09T08:49:46.639Z,24.50
2022-08-09T08:55:08.105Z,24.70
2022-08-09T08:57:37.574Z,24.70
2022-08-09T09:00:17.119Z,24.90
2022-08-09T09:03:08.327Z,25.00
2022-08-09T09:05:59.715Z,25.10
2022-08-09T09:08:37.826Z,25.20
2022-08-09T09:11:17.863Z,25.30
2022-08-09T09:13:57.330Z,25.30
2022-08-09T09:16:33.801Z,25.40
2022-08-09T09:22:04.154Z,25.50
2022-08-09T09:24:37.774Z,25.60
2022-08-09T09:27:09.230Z,25.70
2022-08-09T09:30:10.508Z,25.80
2022-08-09T09:32:39.371Z,25.80
2022-08-09T09:35:27.688Z,26.00
2022-08-09T09:38:02.258Z,26.00
2022-08-09T09:40:46.282Z,26.00
2022-08-09T09:43:22.898Z,26.10
2022-08-09T09:45:57.474Z,26.10
2022-08-09T09:48:57.157Z,26.10
2022-08-09T09:51:38.619Z,26.30
2022-08-09T09:54:20.557Z,26.30
2022-08-09T09:58:01.711Z,26.40
2022-08-09T09:59:40.176Z,26.40
2022-08-09T10:02:12.823Z,26.40
2022-08-09T10:04:41.856Z,26.50
2022-08-09T10:07:27.017Z,26.60
2022-08-09T10:09:59.317Z,26.80
2022-08-09T10:12:34.071Z,26.80
2022-08-09T10:15:17.483Z,27.00
2022-08-09T10:18:10.806Z,27.20
2022-08-09T10:20:44.838Z,27.30
2022-08-09T10:23:23.840Z,27.40
2022-08-09T10:26:07.111Z,27.40
2022-08-09T10:28:41.182Z,27.40
2022-08-09T10:32:27.884Z,27.50
2022-08-09T10:34:08.107Z,27.50
2022-08-09T10:36:39.915Z,27.50
2022-08-09T10:39:15.826Z,27.70
2022-08-09T10:41:49.571Z,27.70
2022-08-09T10:44:24.733Z,27.90
2022-08-09T10:48:12.164Z,28.00
2022-08-09T10:50:27.055Z,28.10
2022-08-09T10:53:10.917Z,28.10
2022-08-09T10:55:58.538Z,28.20
2022-08-09T10:58:37.117Z,28.30
2022-08-09T11:03:16.437Z,28.40
2022-08-09T11:04:31.440Z,28.50
2022-08-09T11:07:57.934Z,28.50
2022-08-09T11:10:38.872Z,28.50
2022-08-09T11:13:50.384Z,28.70
2022-08-09T11:16:35.756Z,28.90
2022-08-09T11:19:11.027Z,29.00
2022-08-09T11:22:18.695Z,29.10
2022-08-09T11:25:10.782Z,29.50
2022-08-09T11:28:03.789Z,30.40
2022-08-09T11:30:36.803Z,30.60
2022-08-09T11:33:12.944Z,30.50
2022-08-09T11:35:50.211Z,30.60
2022-08-09T11:38:32.979Z,30.80
2022-08-09T11:41:37.855Z,31.00
2022-08-09T11:44:08.257Z,30.90
2022-08-09T11:46:57.985Z,30.80
2022-08-09T11:50:55.663Z,30.60
2022-08-09T11:54:00.670Z,30.60
2022-08-09T11:56:42.567Z,30.70
2022-08-09T11:59:30.661Z,30.90
2022-08-09T12:02:34.051Z,31.20
2022-08-09T12:04:59.252Z,31.40
2022-08-09T12:07:34.510Z,31.50
2022-08-09T12:10:31.886Z,31.50
2022-08-09T12:13:03.760Z,31.60
2022-08-09T12:15:54.592Z,31.60
2022-08-09T12:18:30.271Z,31.60
2022-08-09T12:21:26.651Z,31.50
2022-08-09T12:24:08.836Z,31.50
2022-08-09T12:26:44.852Z,30.90
2022-08-09T12:29:52.289Z,31.20
2022-08-09T12:32:26.990Z,31.00
2022-08-09T12:35:04.547Z,30.70
2022-08-09T12:37:44.240Z,30.70
2022-08-09T12:40:23.223Z,30.80
2022-08-09T12:42:55.683Z,31.10
2022-08-09T12:45:34.380Z,31.10
2022-08-09T12:48:10.824Z,31.10
2022-08-09T12:50:56.999Z,31.10
2022-08-09T12:53:32.142Z,31.20
2022-08-09T12:56:39.292Z,31.30
2022-08-09T12:59:14.066Z,31.40
2022-08-09T13:01:49.661Z,31.40
2022-08-09T13:04:33.318Z,31.70
2022-08-09T13:07:16.321Z,31.90
2022-08-09T13:09:55.562Z,31.90
2022-08-09T13:12:29.840Z,31.90
2022-08-09T13:15:08.014Z,31.70
2022-08-09T13:18:03.642Z,31.70
2022-08-09T13:20:37.288Z,31.70
2022-08-09T13:24:16.696Z,31.90
2022-08-09T13:26:37.628Z,32.00
2022-08-09T13:29:13.162Z,32.70
2022-08-09T13:32:17.165Z,33.00
2022-08-09T13:34:48.041Z,33.30
2022-08-09T13:37:24.653Z,32.90
2022-08-09T13:41:51.144Z,32.60
2022-08-09T13:42:57.208Z,32.20
2022-08-09T13:45:32.386Z,32.20
2022-08-09T13:48:15.653Z,32.10
2022-08-09T13:50:48.217Z,32.10
2022-08-09T13:53:16.742Z,32.20
2022-08-09T13:55:47.800Z,32.30
2022-08-09T13:58:16.904Z,32.40
2022-08-09T14:00:49.843Z,32.20
2022-08-09T14:04:03.339Z,32.10
2022-08-09T14:06:19.352Z,32.00
2022-08-09T14:08:53.727Z,32.20
2022-08-09T14:11:23.469Z,32.40
2022-08-09T14:14:23.420Z,32.20
2022-08-09T14:16:40.455Z,31.80
2022-08-09T14:19:09.254Z,31.40
2022-08-09T14:21:38.082Z,31.30
2022-08-09T14:24:18.344Z,31.50
2022-08-09T14:26:53.606Z,31.60
2022-08-09T14:29:25.629Z,31.70
2022-08-09T14:32:16.180Z,31.90
2022-08-09T14:34:44.894Z,31.80
2022-08-09T14:37:13.138Z,31.70
2022-08-09T14:39:47.419Z,31.80
2022-08-09T14:42:39.302Z,31.80
2022-08-09T14:46:39.445Z,32.00
2022-08-09T14:48:00.284Z,32.20
2022-08-09T14:50:32.933Z,32.00
2022-08-09T14:53:06.353Z,31.60
2022-08-09T14:55:41.871Z,31.20
2022-08-09T14:58:13.027Z,31.20
2022-08-09T15:00:42.319Z,31.50
2022-08-09T15:03:11.701Z,31.80
2022-08-09T15:05:50.354Z,31.90
2022-08-09T15:08:23.955Z,32.20
2022-08-09T15:11:01.304Z,32.50
2022-08-09T15:13:48.110Z,32.70
2022-08-09T15:16:19.846Z,33.00
2022-08-09T15:18:49.081Z,33.40
2022-08-09T15:22:01.843Z,33.60
2022-08-09T15:24:12.459Z,33.20
2022-08-09T15:26:46.555Z,32.50
2022-08-09T15:30:58.329Z,31.80
2022-08-09T15:32:29.534Z,31.10
2022-08-09T15:35:00.269Z,30.50
2022-08-09T15:37:57.477Z,30.30
2022-08-09T15:40:32.005Z,30.40
2022-08-09T15:43:04.351Z,30.50
2022-08-09T15:45:51.939Z,30.70
2022-08-09T15:48:28.903Z,30.90
2022-08-09T15:50:59.556Z,31.00
2022-08-09T15:54:03.756Z,31.00
2022-08-09T15:56:26.241Z,31.10
2022-08-09T15:58:57.879Z,31.20
2022-08-09T16:01:31.496Z,31.20
2022-08-09T16:04:04.000Z,31.20
2022-08-09T16:06:35.688Z,31.10
2022-08-09T16:09:07.636Z,30.90
2022-08-09T16:11:35.744Z,30.70
2022-08-09T16:14:07.975Z,30.40
2022-08-09T16:16:41.900Z,30.30
2022-08-09T16:19:14.770Z,30.20
2022-08-09T16:21:51.691Z,30.30
2022-08-09T16:24:32.831Z,30.50
2022-08-09T16:27:02.672Z,30.60
2022-08-09T16:29:38.014Z,30.80
2022-08-09T16:32:34.229Z,30.90
2022-08-09T16:35:05.845Z,31.00
2022-08-09T16:37:56.164Z,31.00
2022-08-09T16:40:39.847Z,30.80
2022-08-09T16:43:09.101Z,30.70
2022-08-09T16:45:44.261Z,30.80
2022-08-09T16:48:43.282Z,31.00
2022-08-09T16:51:08.241Z,31.10
2022-08-09T16:54:24.888Z,31.40
2022-08-09T16:56:34.571Z,31.90
2022-08-09T16:59:06.702Z,32.50
2022-08-09T17:01:39.480Z,32.80
2022-08-09T17:04:20.042Z,32.80
2022-08-09T17:08:40.221Z,32.80
2022-08-09T17:09:45.801Z,32.70
2022-08-09T17:12:15.560Z,32.40
2022-08-09T17:14:47.651Z,32.40
2022-08-09T17:17:26.769Z,32.50
2022-08-09T17:20:29.311Z,32.50
2022-08-09T17:22:51.946Z,32.40
2022-08-09T17:25:23.566Z,32.00
2022-08-09T17:27:54.699Z,31.80
2022-08-09T17:30:26.038Z,31.50
2022-08-09T17:33:00.543Z,31.30
2022-08-09T17:35:41.031Z,31.00
2022-08-09T17:38:31.010Z,30.70
2022-08-09T17:41:00.431Z,30.50
2022-08-09T17:43:34.753Z,30.30
2022-08-09T17:46:07.374Z,30.00
2022-08-09T17:48:40.002Z,29.90
2022-08-09T17:51:18.721Z,29.80
2022-08-09T17:53:52.662Z,29.70
2022-08-09T17:56:27.921Z,29.60
2022-08-09T17:59:03.311Z,29.50
2022-08-09T18:01:57.739Z,29.40
2022-08-09T18:04:26.414Z,29.30
2022-08-09T18:06:56.102Z,29.20
2022-08-09T18:09:40.593Z,29.10
2022-08-09T18:12:17.759Z,29.00
2022-08-09T18:14:54.456Z,28.90
2022-08-09T18:18:03.040Z,28.80
2022-08-09T18:20:54.437Z,28.70
2022-08-09T18:23:07.375Z,28.70
2022-08-09T18:25:53.238Z,28.60
2022-08-09T18:30:39.000Z,28.50
2022-08-09T18:31:15.560Z,28.50
2022-08-09T18:33:54.045Z,28.40
2022-08-09T18:36:32.197Z,28.30
2022-08-09T18:39:06.182Z,28.30
2022-08-09T18:41:36.185Z,28.20
2022-08-09T18:44:13.133Z,28.20
2022-08-09T18:47:05.062Z,28.10
2022-08-09T18:49:41.493Z,28.00
2022-08-09T18:52:18.881Z,27.90
2022-08-09T18:54:58.315Z,27.80
2022-08-09T18:57:43.379Z,27.80
2022-08-09T19:00:19.178Z,27.70
2022-08-09T19:02:50.938Z,27.60
2022-08-09T19:05:28.728Z,27.50
2022-08-09T19:08:18.320Z,27.40
2022-08-09T19:10:48.911Z,27.30
2022-08-09T19:13:38.093Z,27.30
2022-08-09T19:16:09.495Z,27.20
2022-08-09T19:18:42.282Z,27.20
2022-08-09T19:21:12.674Z,27.10
2022-08-09T19:24:31.685Z,27.00
2022-08-09T19:26:35.686Z,26.90
2022-08-09T19:29:18.160Z,26.80
2022-08-09T19:31:51.594Z,26.80
2022-08-09T19:34:24.762Z,26.70
2022-08-09T19:36:55.951Z,26.70
2022-08-09T19:39:29.221Z,26.60
2022-08-09T19:42:19.268Z,26.50
2022-08-09T19:44:50.624Z,26.50
2022-08-09T19:47:22.582Z,26.40
2022-08-09T19:50:08.985Z,26.40
2022-08-09T19:52:49.762Z,26.30
2022-08-09T19:55:30.692Z,26.30
2022-08-09T19:58:16.149Z,26.20
2022-08-09T20:00:46.677Z,26.10
2022-08-09T20:04:08.157Z,26.10
2022-08-09T20:06:10.417Z,26.00
2022-08-09T20:08:51.579Z,25.90
2022-08-09T20:11:25.892Z,25.90
2022-08-09T20:13:56.689Z,25.80
2022-08-09T20:16:36.247Z,25.80
2022-08-09T20:19:42.900Z,25.70
2022-08-09T20:22:00.357Z,25.70
2022-08-09T20:24:33.403Z,25.70
2022-08-09T20:27:05.655Z,25.60
2022-08-09T20:29:39.580Z,25.60
2022-08-09T20:32:30.641Z,25.60
2022-08-09T20:34:57.533Z,25.60
2022-08-09T20:37:37.876Z,25.50
2022-08-09T20:40:24.750Z,25.50
2022-08-09T20:43:12.364Z,25.40
2022-08-09T20:46:01.243Z,25.40
2022-08-09T20:48:38.780Z,25.30
2022-08-09T20:51:07.672Z,25.30
2022-08-09T20:53:48.936Z,25.20
2022-08-09T20:56:21.139Z,25.10
2022-08-09T20:58:54.609Z,25.10
2022-08-09T21:01:34.589Z,25.10
2022-08-09T21:05:52.882Z,25.00
2022-08-09T21:07:14.136Z,25.00
2022-08-09T21:09:55.737Z,24.90
2022-08-09T21:15:14.906Z,24.80
2022-08-09T21:18:20.875Z,24.80
2022-08-09T21:20:37.598Z,24.70
2022-08-09T21:23:13.090Z,24.60
2022-08-09T21:25:59.318Z,24.60
2022-08-09T21:28:33.277Z,24.50
2022-08-09T21:31:02.335Z,24.50
2022-08-09T21:33:50.986Z,24.40
2022-08-09T21:36:23.055Z,24.40
2022-08-09T21:38:57.356Z,24.40
2022-08-09T21:42:03.445Z,24.30
2022-08-09T21:44:34.744Z,24.30
2022-08-09T21:47:07.944Z,24.30
2022-08-09T21:49:42.945Z,24.30
2022-08-09T21:52:20.312Z,24.20
2022-08-09T21:54:56.860Z,24.20
2022-08-09T21:57:37.418Z,24.10
2022-08-09T22:00:11.140Z,24.10
2022-08-09T22:02:43.061Z,24.10
2022-08-09T22:05:22.707Z,24.00
2022-08-09T22:07:54.160Z,24.00
2022-08-09T22:10:24.195Z,24.00
2022-08-09T22:12:53.437Z,23.90
2022-08-09T22:15:33.470Z,23.90
2022-08-09T22:18:03.747Z,23.90
2022-08-09T22:20:33.389Z,23.80
2022-08-09T22:23:02.333Z,23.80
2022-08-09T22:26:05.866Z,23.70
2022-08-09T22:28:32.985Z,23.70
2022-08-09T22:31:02.148Z,23.60
2022-08-09T22:33:48.545Z,23.50
2022-08-09T22:36:19.632Z,23.50
2022-08-09T22:38:48.750Z,23.40
2022-08-09T22:41:16.902Z,23.40
2022-08-09T22:44:00.664Z,23.40
2022-08-09T22:48:14.135Z,23.40
2022-08-09T22:49:22.051Z,23.40
2022-08-09T22:51:57.353Z,23.30
2022-08-09T22:54:27.467Z,23.30
2022-08-09T22:56:58.776Z,23.30
2022-08-09T22:59:57.073Z,23.20
2022-08-09T23:02:19.928Z,23.20
2022-08-09T23:04:54.296Z,23.10
2022-08-09T23:08:23.283Z,23.00
2022-08-09T23:10:33.044Z,22.90
2022-08-09T23:13:01.514Z,22.90
2022-08-09T23:15:31.019Z,22.80
2022-08-09T23:17:59.191Z,22.80
2022-08-09T23:20:28.648Z,22.80
2022-08-09T23:22:58.207Z,22.80
2022-08-09T23:25:26.333Z,22.70
2022-08-09T23:27:57.334Z,22.70
2022-08-09T23:30:49.159Z,22.70
2022-08-09T23:33:20.479Z,22.60
2022-08-09T23:36:04.874Z,22.60
2022-08-09T23:38:48.565Z,22.60
2022-08-09T23:41:29.086Z,22.60
2022-08-09T23:43:58.619Z,22.60
2022-08-09T23:46:27.014Z,22.60
2022-08-09T23:48:55.567Z,22.60
2022-08-09T23:51:23.930Z,22.60
2022-08-09T23:53:55.453Z,22.60
2022-08-09T23:56:52.452Z,22.60
2022-08-09T23:59:18.798Z,22.60
